sensor_id;sensor_type;location;lat;lon;timestamp;pressure;altitude;pressure_sealevel;temperature;humidity
51849;BME280;38952;51.090;-1.832;2023-04-09T00:01:02;101160.19;;;7.30;73.90
51849;BME280;38952;51.090;-1.832;2023-04-09T00:03:28;101146.13;;;7.14;74.71
51849;BME280;38952;51.090;-1.832;2023-04-09T00:05:53;101138.88;;;7.08;75.01
51849;BME280;38952;51.090;-1.832;2023-04-09T00:08:20;101134.53;;;7.01;75.27
51849;BME280;38952;51.090;-1.832;2023-04-09T00:10:50;101132.13;;;6.92;74.43
51849;BME280;38952;51.090;-1.832;2023-04-09T00:13:19;101141.72;;;6.95;74.59
51849;BME280;38952;51.090;-1.832;2023-04-09T00:15:45;101159.00;;;7.01;74.78
51849;BME280;38952;51.090;-1.832;2023-04-09T00:18:12;101155.31;;;6.95;75.62
51849;BME280;38952;51.090;-1.832;2023-04-09T00:20:37;101146.81;;;6.85;75.37
51849;BME280;38952;51.090;-1.832;2023-04-09T00:23:03;101150.84;;;6.82;75.85
51849;BME280;38952;51.090;-1.832;2023-04-09T00:25:28;101157.34;;;6.81;75.00
51849;BME280;38952;51.090;-1.832;2023-04-09T00:27:54;101142.16;;;6.73;75.48
51849;BME280;38952;51.090;-1.832;2023-04-09T00:30:23;101128.66;;;6.60;75.91
51849;BME280;38952;51.090;-1.832;2023-04-09T00:32:48;101132.88;;;6.56;75.85
51849;BME280;38952;51.090;-1.832;2023-04-09T00:35:14;101127.50;;;6.49;76.39
51849;BME280;38952;51.090;-1.832;2023-04-09T00:37:43;101124.63;;;6.44;75.92
51849;BME280;38952;51.090;-1.832;2023-04-09T00:40:11;101121.50;;;6.40;76.28
51849;BME280;38952;51.090;-1.832;2023-04-09T00:42:37;101106.78;;;6.23;76.08
51849;BME280;38952;51.090;-1.832;2023-04-09T00:45:03;101094.72;;;6.19;76.65
51849;BME280;38952;51.090;-1.832;2023-04-09T00:47:30;101102.25;;;6.17;76.58
51849;BME280;38952;51.090;-1.832;2023-04-09T00:49:57;101108.28;;;6.19;77.50
51849;BME280;38952;51.090;-1.832;2023-04-09T00:52:23;101083.34;;;5.97;77.34
51849;BME280;38952;51.090;-1.832;2023-04-09T00:54:52;101088.16;;;6.01;77.50
51849;BME280;38952;51.090;-1.832;2023-04-09T00:57:19;101094.81;;;6.05;77.81
51849;BME280;38952;51.090;-1.832;2023-04-09T00:59:44;101075.41;;;5.95;77.36
51849;BME280;38952;51.090;-1.832;2023-04-09T01:02:10;101073.53;;;5.95;76.79
51849;BME280;38952;51.090;-1.832;2023-04-09T01:04:37;101080.03;;;5.94;77.09
51849;BME280;38952;51.090;-1.832;2023-04-09T01:12:52;101078.00;;;5.83;77.62
51849;BME280;38952;51.090;-1.832;2023-04-09T01:15:25;101071.22;;;5.67;77.72
51849;BME280;38952;51.090;-1.832;2023-04-09T01:18:04;101068.31;;;5.62;78.35
51849;BME280;38952;51.090;-1.832;2023-04-09T01:20:46;101076.44;;;5.62;78.46
51849;BME280;38952;51.090;-1.832;2023-04-09T01:26:20;101055.09;;;5.40;78.97
51849;BME280;38952;51.090;-1.832;2023-04-09T01:28:52;101059.28;;;5.36;78.46
51849;BME280;38952;51.090;-1.832;2023-04-09T01:31:27;101057.22;;;5.32;78.45
51849;BME280;38952;51.090;-1.832;2023-04-09T01:33:55;101051.84;;;5.18;79.07
51849;BME280;38952;51.090;-1.832;2023-04-09T01:36:23;101073.31;;;5.20;79.90
51849;BME280;38952;51.090;-1.832;2023-04-09T01:38:50;101069.59;;;5.14;79.76
51849;BME280;38952;51.090;-1.832;2023-04-09T01:41:18;101045.47;;;4.93;80.12
51849;BME280;38952;51.090;-1.832;2023-04-09T01:43:47;101063.38;;;5.00;79.63
51849;BME280;38952;51.090;-1.832;2023-04-09T01:46:15;101064.44;;;4.93;79.92
51849;BME280;38952;51.090;-1.832;2023-04-09T01:48:42;101067.78;;;4.88;79.89
51849;BME280;38952;51.090;-1.832;2023-04-09T01:51:08;101069.47;;;4.82;80.39
51849;BME280;38952;51.090;-1.832;2023-04-09T01:53:33;101067.41;;;4.78;80.23
51849;BME280;38952;51.090;-1.832;2023-04-09T01:55:59;101054.28;;;4.75;80.64
51849;BME280;38952;51.090;-1.832;2023-04-09T01:58:26;101060.09;;;4.71;80.39
51849;BME280;38952;51.090;-1.832;2023-04-09T02:00:56;101049.47;;;4.70;80.70
51849;BME280;38952;51.090;-1.832;2023-04-09T02:03:26;101037.84;;;4.56;80.54
51849;BME280;38952;51.090;-1.832;2023-04-09T02:06:06;101039.53;;;4.57;80.61
51849;BME280;38952;51.090;-1.832;2023-04-09T02:08:34;101050.97;;;4.59;80.97
51849;BME280;38952;51.090;-1.832;2023-04-09T02:11:03;101055.34;;;4.60;81.42
51849;BME280;38952;51.090;-1.832;2023-04-09T02:13:30;101037.19;;;4.54;81.43
51849;BME280;38952;51.090;-1.832;2023-04-09T02:15:57;101038.88;;;4.55;81.60
51849;BME280;38952;51.090;-1.832;2023-04-09T02:18:28;101037.19;;;4.54;81.21
51849;BME280;38952;51.090;-1.832;2023-04-09T02:20:58;101050.53;;;4.55;81.55
51849;BME280;38952;51.090;-1.832;2023-04-09T02:23:24;101031.38;;;4.44;81.34
51849;BME280;38952;51.090;-1.832;2023-04-09T02:25:51;101038.91;;;4.48;82.05
51849;BME280;38952;51.090;-1.832;2023-04-09T02:28:17;101033.88;;;4.45;81.66
51849;BME280;38952;51.090;-1.832;2023-04-09T02:30:42;101048.69;;;4.56;81.53
51849;BME280;38952;51.090;-1.832;2023-04-09T02:33:08;101037.03;;;4.49;81.93
51849;BME280;38952;51.090;-1.832;2023-04-09T02:35:33;101047.00;;;4.55;81.72
51849;BME280;38952;51.090;-1.832;2023-04-09T02:37:59;101050.75;;;4.54;81.71
51849;BME280;38952;51.090;-1.832;2023-04-09T02:40:25;101057.41;;;4.58;82.06
51849;BME280;38952;51.090;-1.832;2023-04-09T02:42:51;101057.00;;;4.61;82.37
51849;BME280;38952;51.090;-1.832;2023-04-09T02:45:17;101038.91;;;4.48;82.31
51849;BME280;38952;51.090;-1.832;2023-04-09T02:47:42;101041.16;;;4.58;82.08
51849;BME280;38952;51.090;-1.832;2023-04-09T02:50:07;101042.63;;;4.61;82.49
51849;BME280;38952;51.090;-1.832;2023-04-09T02:52:33;101034.09;;;4.57;82.39
51849;BME280;38952;51.090;-1.832;2023-04-09T02:54:58;101054.06;;;4.69;82.28
51849;BME280;38952;51.090;-1.832;2023-04-09T02:57:24;101024.91;;;4.58;82.27
51849;BME280;38952;51.090;-1.832;2023-04-09T02:59:49;101043.44;;;4.68;82.35
51849;BME280;38952;51.090;-1.832;2023-04-09T03:02:15;101041.56;;;4.68;81.76
51849;BME280;38952;51.090;-1.832;2023-04-09T03:04:40;101044.47;;;4.74;82.24
51849;BME280;38952;51.090;-1.832;2023-04-09T03:07:06;101027.84;;;4.63;82.50
51849;BME280;38952;51.090;-1.832;2023-04-09T03:09:33;101021.97;;;4.66;82.08
51849;BME280;38952;51.090;-1.832;2023-04-09T03:11:59;101018.25;;;4.67;82.49
51849;BME280;38952;51.090;-1.832;2023-04-09T03:14:26;101036.53;;;4.79;82.49
51849;BME280;38952;51.090;-1.832;2023-04-09T03:16:51;101029.91;;;4.75;82.40
51849;BME280;38952;51.090;-1.832;2023-04-09T03:19:17;101019.88;;;4.68;82.73
51849;BME280;38952;51.090;-1.832;2023-04-09T03:21:42;101012.81;;;4.67;82.57
51849;BME280;38952;51.090;-1.832;2023-04-09T03:24:11;101022.81;;;4.74;82.15
51849;BME280;38952;51.090;-1.832;2023-04-09T03:26:36;101032.34;;;4.83;82.29
51849;BME280;38952;51.090;-1.832;2023-04-09T03:29:05;101030.50;;;4.83;82.57
51849;BME280;38952;51.090;-1.832;2023-04-09T03:31:35;101008.22;;;4.75;82.26
51849;BME280;38952;51.090;-1.832;2023-04-09T03:34:01;101004.47;;;4.69;82.20
51849;BME280;38952;51.090;-1.832;2023-04-09T03:36:26;101021.94;;;4.80;82.39
51849;BME280;38952;51.090;-1.832;2023-04-09T03:38:52;101020.47;;;4.84;82.30
51849;BME280;38952;51.090;-1.832;2023-04-09T03:41:18;101005.28;;;4.76;82.65
51849;BME280;38952;51.090;-1.832;2023-04-09T03:43:43;101013.22;;;4.78;82.88
51849;BME280;38952;51.090;-1.832;2023-04-09T03:46:16;101005.69;;;4.80;83.03
51849;BME280;38952;51.090;-1.832;2023-04-09T03:48:42;100985.31;;;4.70;82.97
51849;BME280;38952;51.090;-1.832;2023-04-09T03:51:12;100989.03;;;4.76;82.87
51849;BME280;38952;51.090;-1.832;2023-04-09T03:53:40;100969.66;;;4.72;82.49
51849;BME280;38952;51.090;-1.832;2023-04-09T03:56:07;100991.91;;;4.81;82.31
51849;BME280;38952;51.090;-1.832;2023-04-09T03:58:32;100979.03;;;4.70;82.39
51849;BME280;38952;51.090;-1.832;2023-04-09T04:00:58;100968.41;;;4.68;82.66
51849;BME280;38952;51.090;-1.832;2023-04-09T04:03:23;100955.13;;;4.60;82.27
51849;BME280;38952;51.090;-1.832;2023-04-09T04:05:49;100980.06;;;4.76;83.12
51849;BME280;38952;51.090;-1.832;2023-04-09T04:08:14;100983.19;;;4.72;82.71
51849;BME280;38952;51.090;-1.832;2023-04-09T04:10:40;100973.66;;;4.63;83.03
51849;BME280;38952;51.090;-1.832;2023-04-09T04:13:06;100967.41;;;4.56;83.32
51849;BME280;38952;51.090;-1.832;2023-04-09T04:15:40;100971.59;;;4.59;82.49
51849;BME280;38952;51.090;-1.832;2023-04-09T04:18:06;100957.66;;;4.42;82.89
51849;BME280;38952;51.090;-1.832;2023-04-09T04:20:32;100973.25;;;4.46;83.42
51849;BME280;38952;51.090;-1.832;2023-04-09T04:22:58;100979.94;;;4.50;83.56
51849;BME280;38952;51.090;-1.832;2023-04-09T04:25:23;100962.47;;;4.40;83.72
51849;BME280;38952;51.090;-1.832;2023-04-09T04:27:51;100945.81;;;4.29;83.53
51849;BME280;38952;51.090;-1.832;2023-04-09T04:30:20;100957.28;;;4.31;83.47
51849;BME280;38952;51.090;-1.832;2023-04-09T04:32:46;100968.72;;;4.33;83.62
51849;BME280;38952;51.090;-1.832;2023-04-09T04:35:11;100954.56;;;4.31;83.53
51849;BME280;38952;51.090;-1.832;2023-04-09T04:37:37;100948.31;;;4.31;84.00
51849;BME280;38952;51.090;-1.832;2023-04-09T04:40:02;100931.88;;;4.26;84.31
51849;BME280;38952;51.090;-1.832;2023-04-09T04:42:30;100950.34;;;4.42;84.17
51849;BME280;38952;51.090;-1.832;2023-04-09T04:45:06;100942.78;;;4.64;83.79
51849;BME280;38952;51.090;-1.832;2023-04-09T04:47:32;100927.69;;;4.82;83.06
51849;BME280;38952;51.090;-1.832;2023-04-09T04:49:57;100938.50;;;4.95;83.01
51849;BME280;38952;51.090;-1.832;2023-04-09T04:52:25;100933.53;;;4.92;82.90
51849;BME280;38952;51.090;-1.832;2023-04-09T04:54:51;100953.47;;;5.04;82.98
51849;BME280;38952;51.090;-1.832;2023-04-09T04:57:16;100941.38;;;5.00;83.63
51849;BME280;38952;51.090;-1.832;2023-04-09T04:59:44;100931.41;;;5.01;83.68
51849;BME280;38952;51.090;-1.832;2023-04-09T05:02:09;100916.25;;;4.86;84.24
51849;BME280;38952;51.090;-1.832;2023-04-09T05:04:35;100932.38;;;5.06;83.91
51849;BME280;38952;51.090;-1.832;2023-04-09T05:07:00;100932.72;;;5.17;83.85
51849;BME280;38952;51.090;-1.832;2023-04-09T05:09:26;100923.34;;;5.19;84.09
51849;BME280;38952;51.090;-1.832;2023-04-09T05:11:51;100927.06;;;5.25;83.31
51849;BME280;38952;51.090;-1.832;2023-04-09T05:14:17;100917.75;;;5.14;83.89
51849;BME280;38952;51.090;-1.832;2023-04-09T05:16:45;100912.59;;;5.06;84.21
51849;BME280;38952;51.090;-1.832;2023-04-09T05:19:10;100915.94;;;5.01;84.59
51849;BME280;38952;51.090;-1.832;2023-04-09T05:21:36;100923.13;;;4.82;84.81
51849;BME280;38952;51.090;-1.832;2023-04-09T05:24:01;100911.88;;;4.79;85.25
51849;BME280;38952;51.090;-1.832;2023-04-09T05:26:30;100928.84;;;5.06;85.62
51849;BME280;38952;51.090;-1.832;2023-04-09T05:28:55;100941.59;;;5.37;84.57
51849;BME280;38952;51.090;-1.832;2023-04-09T05:31:21;100933.97;;;5.53;84.65
51849;BME280;38952;51.090;-1.832;2023-04-09T05:33:46;100941.75;;;5.74;84.81
51849;BME280;38952;51.090;-1.832;2023-04-09T05:36:16;100929.53;;;5.84;84.55
51849;BME280;38952;51.090;-1.832;2023-04-09T05:38:45;100957.69;;;6.15;83.83
51849;BME280;38952;51.090;-1.832;2023-04-09T05:41:11;100953.22;;;6.27;84.55
51849;BME280;38952;51.090;-1.832;2023-04-09T05:43:37;100942.13;;;6.28;84.52
51849;BME280;38952;51.090;-1.832;2023-04-09T05:46:03;100953.22;;;6.45;84.72
51849;BME280;38952;51.090;-1.832;2023-04-09T05:48:28;100944.41;;;6.50;85.05
51849;BME280;38952;51.090;-1.832;2023-04-09T05:50:56;100931.28;;;6.47;84.46
51849;BME280;38952;51.090;-1.832;2023-04-09T05:53:21;100939.25;;;6.60;83.98
51849;BME280;38952;51.090;-1.832;2023-04-09T05:55:47;100939.31;;;6.72;84.42
51849;BME280;38952;51.090;-1.832;2023-04-09T05:58:16;100937.34;;;6.79;84.45
51849;BME280;38952;51.090;-1.832;2023-04-09T06:00:45;100940.81;;;6.87;84.38
51849;BME280;38952;51.090;-1.832;2023-04-09T06:03:10;100951.66;;;7.05;84.17
51849;BME280;38952;51.090;-1.832;2023-04-09T06:05:35;100941.84;;;7.04;84.98
51849;BME280;38952;51.090;-1.832;2023-04-09T06:08:01;100936.78;;;7.08;83.94
51849;BME280;38952;51.090;-1.832;2023-04-09T06:10:27;100959.94;;;7.29;85.00
51849;BME280;38952;51.090;-1.832;2023-04-09T06:12:52;100952.25;;;7.26;84.52
51849;BME280;38952;51.090;-1.832;2023-04-09T06:15:19;100951.91;;;7.46;84.33
51849;BME280;38952;51.090;-1.832;2023-04-09T06:17:45;100957.28;;;7.53;84.04
51849;BME280;38952;51.090;-1.832;2023-04-09T06:20:10;100961.31;;;7.62;83.77
51849;BME280;38952;51.090;-1.832;2023-04-09T06:22:36;100949.84;;;7.60;84.10
51849;BME280;38952;51.090;-1.832;2023-04-09T06:25:02;100949.88;;;7.72;84.20
51849;BME280;38952;51.090;-1.832;2023-04-09T06:27:27;100972.97;;;7.93;83.46
51849;BME280;38952;51.090;-1.832;2023-04-09T06:29:53;100954.50;;;7.95;83.58
51849;BME280;38952;51.090;-1.832;2023-04-09T06:32:18;100950.25;;;7.99;83.21
51849;BME280;38952;51.090;-1.832;2023-04-09T06:34:44;100954.75;;;8.05;83.03
51849;BME280;38952;51.090;-1.832;2023-04-09T06:37:09;100967.41;;;8.23;83.13
51849;BME280;38952;51.090;-1.832;2023-04-09T06:39:34;100941.94;;;8.17;82.86
51849;BME280;38952;51.090;-1.832;2023-04-09T06:42:00;100945.53;;;8.30;82.75
51849;BME280;38952;51.090;-1.832;2023-04-09T06:44:25;100949.69;;;8.44;82.79
51849;BME280;38952;51.090;-1.832;2023-04-09T06:46:51;100953.13;;;8.51;82.32
51849;BME280;38952;51.090;-1.832;2023-04-09T06:49:16;100950.97;;;8.53;81.86
51849;BME280;38952;51.090;-1.832;2023-04-09T06:51:42;100952.16;;;8.58;82.52
51849;BME280;38952;51.090;-1.832;2023-04-09T06:54:10;100946.69;;;8.58;81.75
51849;BME280;38952;51.090;-1.832;2023-04-09T06:56:48;100917.53;;;8.34;81.50
51849;BME280;38952;51.090;-1.832;2023-04-09T06:59:40;100939.34;;;8.46;82.07
51849;BME280;38952;51.090;-1.832;2023-04-09T07:02:07;100929.66;;;8.50;82.63
51849;BME280;38952;51.090;-1.832;2023-04-09T07:04:33;100929.16;;;8.53;82.42
51849;BME280;38952;51.090;-1.832;2023-04-09T07:06:58;100931.28;;;8.63;81.73
51849;BME280;38952;51.090;-1.832;2023-04-09T07:09:24;100948.66;;;8.74;82.08
51849;BME280;38952;51.090;-1.832;2023-04-09T07:11:55;100947.88;;;9.02;81.80
51849;BME280;38952;51.090;-1.832;2023-04-09T07:14:23;100915.97;;;9.03;80.89
51849;BME280;38952;51.090;-1.832;2023-04-09T07:16:48;100935.34;;;9.18;81.34
51849;BME280;38952;51.090;-1.832;2023-04-09T07:19:13;100931.56;;;9.19;81.21
51849;BME280;38952;51.090;-1.832;2023-04-09T07:21:39;100931.16;;;9.28;81.11
51849;BME280;38952;51.090;-1.832;2023-04-09T07:24:05;100932.22;;;9.26;81.05
51849;BME280;38952;51.090;-1.832;2023-04-09T07:26:31;100923.28;;;9.14;80.97
51849;BME280;38952;51.090;-1.832;2023-04-09T07:28:59;100915.84;;;9.26;81.38
51849;BME280;38952;51.090;-1.832;2023-04-09T07:31:37;100910.75;;;9.47;80.84
51849;BME280;38952;51.090;-1.832;2023-04-09T07:34:10;100924.00;;;9.72;80.16
51849;BME280;38952;51.090;-1.832;2023-04-09T07:36:36;100912.75;;;9.69;80.00
51849;BME280;38952;51.090;-1.832;2023-04-09T07:39:01;100914.25;;;9.93;79.54
51849;BME280;38952;51.090;-1.832;2023-04-09T07:41:27;100915.03;;;10.28;79.11
51849;BME280;38952;51.090;-1.832;2023-04-09T07:44:14;100888.97;;;10.42;77.92
51849;BME280;38952;51.090;-1.832;2023-04-09T07:46:50;100913.38;;;10.93;76.65
51849;BME280;38952;51.090;-1.832;2023-04-09T07:49:19;100927.41;;;11.24;75.53
51849;BME280;38952;51.090;-1.832;2023-04-09T07:51:48;100930.41;;;11.50;74.71
51849;BME280;38952;51.090;-1.832;2023-04-09T07:54:13;100934.50;;;11.80;74.41
51849;BME280;38952;51.090;-1.832;2023-04-09T07:56:41;100913.75;;;11.89;73.67
51849;BME280;38952;51.090;-1.832;2023-04-09T08:02:58;100931.50;;;12.67;70.87
51849;BME280;38952;51.090;-1.832;2023-04-09T08:08:43;100906.66;;;13.20;68.03
51849;BME280;38952;51.090;-1.832;2023-04-09T08:11:38;100914.38;;;13.23;67.15
51849;BME280;38952;51.090;-1.832;2023-04-09T08:14:24;100921.22;;;13.25;67.50
51849;BME280;38952;51.090;-1.832;2023-04-09T08:20:01;100906.66;;;13.15;67.22
51849;BME280;38952;51.090;-1.832;2023-04-09T08:22:32;100898.50;;;13.56;66.44
51849;BME280;38952;51.090;-1.832;2023-04-09T08:25:01;100913.31;;;14.01;65.04
51849;BME280;38952;51.090;-1.832;2023-04-09T08:27:26;100918.81;;;14.17;63.70
51849;BME280;38952;51.090;-1.832;2023-04-09T08:29:51;100942.88;;;14.76;62.49
51849;BME280;38952;51.090;-1.832;2023-04-09T08:32:17;100926.53;;;15.40;61.28
51849;BME280;38952;51.090;-1.832;2023-04-09T08:34:42;100936.72;;;16.38;58.43
51849;BME280;38952;51.090;-1.832;2023-04-09T08:37:08;100939.38;;;15.95;57.58
51849;BME280;38952;51.090;-1.832;2023-04-09T08:39:33;100935.34;;;15.82;58.63
51849;BME280;38952;51.090;-1.832;2023-04-09T08:42:00;100924.91;;;15.74;57.41
51849;BME280;38952;51.090;-1.832;2023-04-09T08:44:27;100911.34;;;15.43;57.04
51849;BME280;38952;51.090;-1.832;2023-04-09T08:46:53;100912.44;;;15.07;58.07
51849;BME280;38952;51.090;-1.832;2023-04-09T08:49:19;100922.31;;;15.08;59.13
51849;BME280;38952;51.090;-1.832;2023-04-09T08:51:46;100916.97;;;16.01;58.53
51849;BME280;38952;51.090;-1.832;2023-04-09T08:54:17;100907.09;;;16.92;55.17
51849;BME280;38952;51.090;-1.832;2023-04-09T08:56:47;100898.00;;;16.91;53.60
51849;BME280;38952;51.090;-1.832;2023-04-09T08:59:16;100895.50;;;16.71;54.46
51849;BME280;38952;51.090;-1.832;2023-04-09T09:01:43;100906.06;;;16.88;53.98
51849;BME280;38952;51.090;-1.832;2023-04-09T09:04:11;100904.78;;;17.56;51.21
51849;BME280;38952;51.090;-1.832;2023-04-09T09:06:39;100909.72;;;17.21;51.81
51849;BME280;38952;51.090;-1.832;2023-04-09T09:09:16;100902.72;;;17.10;51.18
51849;BME280;38952;51.090;-1.832;2023-04-09T09:11:44;100924.97;;;16.51;52.57
51849;BME280;38952;51.090;-1.832;2023-04-09T09:14:17;100909.53;;;16.99;52.90
51849;BME280;38952;51.090;-1.832;2023-04-09T09:17:04;100915.34;;;17.35;51.88
51849;BME280;38952;51.090;-1.832;2023-04-09T09:19:32;100918.63;;;17.18;51.73
51849;BME280;38952;51.090;-1.832;2023-04-09T09:21:59;100906.28;;;16.91;53.02
51849;BME280;38952;51.090;-1.832;2023-04-09T09:24:26;100909.94;;;17.63;51.14
51849;BME280;38952;51.090;-1.832;2023-04-09T09:26:52;100899.31;;;18.17;50.55
51849;BME280;38952;51.090;-1.832;2023-04-09T09:29:21;100918.94;;;18.62;48.69
51849;BME280;38952;51.090;-1.832;2023-04-09T09:32:06;100907.31;;;19.84;46.96
51849;BME280;38952;51.090;-1.832;2023-04-09T09:34:37;100909.09;;;21.00;42.52
51849;BME280;38952;51.090;-1.832;2023-04-09T09:37:25;100909.66;;;22.20;40.53
51849;BME280;38952;51.090;-1.832;2023-04-09T09:39:52;100914.03;;;22.68;39.25
51849;BME280;38952;51.090;-1.832;2023-04-09T09:42:18;100913.63;;;24.30;38.75
51849;BME280;38952;51.090;-1.832;2023-04-09T09:44:43;100913.84;;;24.25;37.89
51849;BME280;38952;51.090;-1.832;2023-04-09T09:47:11;100915.28;;;24.55;37.33
51849;BME280;38952;51.090;-1.832;2023-04-09T09:49:37;100913.47;;;23.68;37.82
51849;BME280;38952;51.090;-1.832;2023-04-09T09:52:06;100914.13;;;23.52;37.19
51849;BME280;38952;51.090;-1.832;2023-04-09T09:54:39;100918.16;;;23.55;38.11
51849;BME280;38952;51.090;-1.832;2023-04-09T09:57:07;100895.00;;;24.96;35.40
51849;BME280;38952;51.090;-1.832;2023-04-09T09:59:36;100895.91;;;25.00;35.00
51849;BME280;38952;51.090;-1.832;2023-04-09T10:02:22;100900.09;;;25.06;34.97
51849;BME280;38952;51.090;-1.832;2023-04-09T10:04:49;100900.59;;;26.73;33.37
51849;BME280;38952;51.090;-1.832;2023-04-09T10:07:18;100905.06;;;26.93;31.79
51849;BME280;38952;51.090;-1.832;2023-04-09T10:10:06;100889.22;;;26.02;32.45
51849;BME280;38952;51.090;-1.832;2023-04-09T10:12:32;100883.50;;;25.54;33.16
51849;BME280;38952;51.090;-1.832;2023-04-09T10:14:58;100885.00;;;25.23;32.77
51849;BME280;38952;51.090;-1.832;2023-04-09T10:17:29;100901.09;;;24.61;33.61
51849;BME280;38952;51.090;-1.832;2023-04-09T10:20:10;100887.78;;;23.41;35.58
51849;BME280;38952;51.090;-1.832;2023-04-09T10:22:37;100880.44;;;24.78;34.98
51849;BME280;38952;51.090;-1.832;2023-04-09T10:25:04;100881.53;;;24.61;33.97
51849;BME280;38952;51.090;-1.832;2023-04-09T10:27:30;100884.06;;;25.59;34.08
51849;BME280;38952;51.090;-1.832;2023-04-09T10:29:56;100881.38;;;28.35;30.28
51849;BME280;38952;51.090;-1.832;2023-04-09T10:32:24;100881.72;;;30.23;25.73
51849;BME280;38952;51.090;-1.832;2023-04-09T10:34:55;100876.34;;;31.25;25.89
51849;BME280;38952;51.090;-1.832;2023-04-09T10:37:25;100887.28;;;33.29;23.69
51849;BME280;38952;51.090;-1.832;2023-04-09T10:39:51;100879.78;;;34.23;22.18
51849;BME280;38952;51.090;-1.832;2023-04-09T10:44:45;100853.25;;;34.86;20.00
51849;BME280;38952;51.090;-1.832;2023-04-09T10:47:11;100866.81;;;32.49;21.95
51849;BME280;38952;51.090;-1.832;2023-04-09T10:49:55;100863.81;;;30.53;24.57
51849;BME280;38952;51.090;-1.832;2023-04-09T10:52:28;100863.72;;;28.38;26.89
51849;BME280;38952;51.090;-1.832;2023-04-09T10:54:54;100858.88;;;29.53;27.10
51849;BME280;38952;51.090;-1.832;2023-04-09T10:57:20;100861.06;;;30.60;25.83
51849;BME280;38952;51.090;-1.832;2023-04-09T10:59:51;100846.06;;;30.49;26.04
51849;BME280;38952;51.090;-1.832;2023-04-09T11:08:02;100841.88;;;26.99;25.63
51849;BME280;38952;51.090;-1.832;2023-04-09T11:10:27;100824.38;;;27.68;27.48
51849;BME280;38952;51.090;-1.832;2023-04-09T11:12:53;100840.72;;;30.36;22.46
51849;BME280;38952;51.090;-1.832;2023-04-09T11:15:19;100834.88;;;30.63;21.81
51849;BME280;38952;51.090;-1.832;2023-04-09T11:17:46;100825.78;;;30.32;21.54
51849;BME280;38952;51.090;-1.832;2023-04-09T11:20:13;100816.38;;;30.14;22.21
51849;BME280;38952;51.090;-1.832;2023-04-09T11:22:39;100807.59;;;30.89;21.45
51849;BME280;38952;51.090;-1.832;2023-04-09T11:25:05;100820.38;;;32.28;20.36
51849;BME280;38952;51.090;-1.832;2023-04-09T11:27:36;100799.63;;;31.16;20.13
51849;BME280;38952;51.090;-1.832;2023-04-09T11:30:01;100805.31;;;31.30;20.57
51849;BME280;38952;51.090;-1.832;2023-04-09T11:32:29;100796.09;;;32.45;19.74
51849;BME280;38952;51.090;-1.832;2023-04-09T11:34:55;100795.97;;;33.66;18.35
51849;BME280;38952;51.090;-1.832;2023-04-09T11:37:22;100788.88;;;33.36;18.17
51849;BME280;38952;51.090;-1.832;2023-04-09T11:39:48;100792.53;;;33.37;18.06
51849;BME280;38952;51.090;-1.832;2023-04-09T11:42:15;100809.94;;;33.32;18.64
51849;BME280;38952;51.090;-1.832;2023-04-09T11:44:41;100785.47;;;33.60;18.15
51849;BME280;38952;51.090;-1.832;2023-04-09T11:47:08;100781.94;;;32.45;18.65
51849;BME280;38952;51.090;-1.832;2023-04-09T11:49:34;100759.31;;;32.42;18.92
51849;BME280;38952;51.090;-1.832;2023-04-09T11:52:00;100781.75;;;33.03;18.79
51849;BME280;38952;51.090;-1.832;2023-04-09T11:54:34;100775.13;;;32.32;18.63
51849;BME280;38952;51.090;-1.832;2023-04-09T11:56:59;100778.44;;;33.15;18.42
51849;BME280;38952;51.090;-1.832;2023-04-09T11:59:26;100782.81;;;33.34;18.01
51849;BME280;38952;51.090;-1.832;2023-04-09T12:05:07;100752.59;;;33.66;17.94
51849;BME280;38952;51.090;-1.832;2023-04-09T12:07:55;100765.00;;;33.90;17.49
51849;BME280;38952;51.090;-1.832;2023-04-09T12:10:36;100777.66;;;34.23;16.80
51849;BME280;38952;51.090;-1.832;2023-04-09T12:13:05;100761.31;;;33.44;17.02
51849;BME280;38952;51.090;-1.832;2023-04-09T12:15:37;100751.50;;;32.82;17.99
51849;BME280;38952;51.090;-1.832;2023-04-09T12:18:09;100751.38;;;33.67;17.42
51849;BME280;38952;51.090;-1.832;2023-04-09T12:20:40;100758.28;;;34.11;17.06
51849;BME280;38952;51.090;-1.832;2023-04-09T12:23:07;100763.84;;;35.25;16.89
51849;BME280;38952;51.090;-1.832;2023-04-09T12:25:34;100760.44;;;35.61;16.41
51849;BME280;38952;51.090;-1.832;2023-04-09T12:28:01;100755.88;;;36.39;15.51
51849;BME280;38952;51.090;-1.832;2023-04-09T12:30:27;100759.50;;;36.99;14.94
51849;BME280;38952;51.090;-1.832;2023-04-09T12:32:53;100751.34;;;36.61;14.52
51849;BME280;38952;51.090;-1.832;2023-04-09T12:35:20;100773.09;;;36.72;14.39
51849;BME280;38952;51.090;-1.832;2023-04-09T12:37:48;100751.69;;;35.99;15.04
51849;BME280;38952;51.090;-1.832;2023-04-09T12:40:18;100742.41;;;34.90;15.52
51849;BME280;38952;51.090;-1.832;2023-04-09T12:42:44;100744.78;;;34.26;15.99
51849;BME280;38952;51.090;-1.832;2023-04-09T12:45:12;100753.22;;;33.39;16.22
51849;BME280;38952;51.090;-1.832;2023-04-09T12:47:38;100765.03;;;32.16;17.22
51849;BME280;38952;51.090;-1.832;2023-04-09T12:50:21;100738.38;;;31.81;17.21
51849;BME280;38952;51.090;-1.832;2023-04-09T12:52:47;100752.91;;;31.47;17.80
51849;BME280;38952;51.090;-1.832;2023-04-09T12:55:13;100734.28;;;31.10;17.87
51849;BME280;38952;51.090;-1.832;2023-04-09T12:57:44;100748.00;;;31.23;17.88
51849;BME280;38952;51.090;-1.832;2023-04-09T13:00:11;100734.75;;;31.77;17.96
51849;BME280;38952;51.090;-1.832;2023-04-09T13:02:37;100747.63;;;31.49;17.91
51849;BME280;38952;51.090;-1.832;2023-04-09T13:05:02;100751.00;;;30.60;18.81
51849;BME280;38952;51.090;-1.832;2023-04-09T13:07:30;100741.88;;;29.66;19.03
51849;BME280;38952;51.090;-1.832;2023-04-09T13:09:56;100736.06;;;29.48;19.76
51849;BME280;38952;51.090;-1.832;2023-04-09T13:12:22;100738.13;;;29.51;19.80
51849;BME280;38952;51.090;-1.832;2023-04-09T13:14:49;100728.00;;;29.88;19.18
51849;BME280;38952;51.090;-1.832;2023-04-09T13:17:15;100733.91;;;30.31;18.44
51849;BME280;38952;51.090;-1.832;2023-04-09T13:19:41;100719.13;;;30.56;18.80